LEBA/ODB METAR and TAF weather

Enter ICAO airport designator
Station Type Date Time Source
LEBA METAR 2021/10/22 19:30 UTC NOAA

LEBA 221930Z AUTO 36003KT CAVOK 20/09 Q1016


Station Type Date Time Source
LEBA Decoded METAR 2021/10/22 19:30 UTC NOAA

Cordoba / Aeropuerto, Spain (LEBA) 37-51N 004-51W 92M
Oct 22, 2021 - 03:30 PM EDT / 2021.10.22 1930 UTC
Wind: from the N (360 degrees) at 3 MPH (3 KT):0
Visibility: greater than 7 mile(s):0
Temperature: 68 F (20 C)
Dew Point: 48 F (9 C)
Relative Humidity: 49%
Pressure (altimeter): 30.00 in. Hg (1016 hPa)
ob: LEBA 221930Z AUTO 36003KT CAVOK 20/09 Q1016
cycle: 19

Station Type Date Time Source
LEBA TAF 2021/10/22 15:27 UTC NOAA

TAF LEBA 221400Z 2215/2315 VRB02KT 9999 FEW045 TX26/2215Z TN10/2306Z
BECMG 2217/2220 06010KT
BECMG 2301/2304 VRB02KT

Example: see airport list